Time;durP1;ratioP1;P1;durP2;ratioP2;P2;SDS_P1;SDS_P2;PMS_P1;PMS_P2;Temp;Humidity;BMP_temperature;BMP_pressure;BME280_temperature;BME280_humidity;BME280_pressure;Samples;Min_cycle;Max_cycle;Signal;HPM_P1;HPM_P2
2021/06/17 00:00:17;;;;;;;11.80;5.05;;;22.40;97.90;;;;;;4988128;28;20034;-83
2021/06/17 00:02:43;;;;;;;;;;;22.40;98.00;;;;;;4993607;28;20022;-83
2021/06/17 00:05:11;;;;;;;11.35;5.40;;;22.40;97.90;;;;;;4987858;28;19910;-85
2021/06/17 00:07:38;;;;;;;8.73;5.00;;;22.30;98.00;;;;;;4992633;28;20110;-83
2021/06/17 00:10:06;;;;;;;9.75;4.53;;;22.30;98.20;;;;;;4988593;28;20065;-82
2021/06/17 00:12:32;;;;;;;10.25;4.47;;;22.30;98.10;;;;;;4985123;28;20356;-75
2021/06/17 00:14:59;;;;;;;10.82;4.72;;;22.30;97.90;;;;;;4991239;28;20023;-84
2021/06/17 00:17:25;;;;;;;7.78;4.55;;;22.30;97.90;;;;;;4992550;28;20101;-85
2021/06/17 00:19:50;;;;;;;8.15;4.50;;;22.30;98.00;;;;;;4991472;28;20030;-85
2021/06/17 00:22:16;;;;;;;11.18;5.13;;;22.30;98.10;;;;;;4973587;28;20032;-86
2021/06/17 00:24:42;;;;;;;20.35;5.28;;;22.30;98.20;;;;;;4992302;28;20026;-85
2021/06/17 00:27:07;;;;;;;17.05;5.13;;;22.30;98.20;;;;;;4990253;28;20022;-85
2021/06/17 00:29:33;;;;;;;10.95;5.00;;;22.30;98.20;;;;;;4983578;28;20070;-76
2021/06/17 00:31:59;;;;;;;12.80;4.43;;;22.30;98.20;;;;;;4991558;28;20042;-79
2021/06/17 00:34:25;;;;;;;6.45;4.38;;;22.30;98.30;;;;;;4983398;28;20069;-76
2021/06/17 00:36:50;;;;;;;8.38;4.68;;;22.30;98.30;;;;;;4989701;28;20061;-78
2021/06/17 00:39:16;;;;;;;8.50;4.45;;;22.30;98.40;;;;;;4983445;28;20050;-78
2021/06/17 00:41:43;;;;;;;9.30;4.72;;;22.30;98.40;;;;;;4986742;28;20102;-84
2021/06/17 00:44:09;;;;;;;7.95;4.70;;;22.30;98.50;;;;;;4988190;28;20022;-82
2021/06/17 00:46:35;;;;;;;9.55;4.57;;;22.30;98.60;;;;;;4991589;28;20084;-82
2021/06/17 00:49:01;;;;;;;11.60;4.57;;;22.20;98.60;;;;;;4985153;28;150630;-85
2021/06/17 00:51:27;;;;;;;7.78;4.90;;;22.20;98.70;;;;;;4991333;28;20033;-85
2021/06/17 00:53:53;;;;;;;9.50;5.00;;;22.20;98.60;;;;;;4991493;28;20022;-86
2021/06/17 00:56:19;;;;;;;15.70;5.32;;;22.20;98.40;;;;;;4990829;28;20365;-85
2021/06/17 00:58:44;;;;;;;7.95;4.60;;;22.20;98.50;;;;;;4973319;28;20121;-80
2021/06/17 01:01:10;;;;;;;10.43;5.75;;;22.20;98.50;;;;;;4987155;28;20109;-79
2021/06/17 01:03:36;;;;;;;8.00;4.28;;;22.20;98.50;;;;;;4991099;28;20065;-77
2021/06/17 01:06:02;;;;;;;14.30;4.43;;;22.20;98.40;;;;;;4985042;28;20081;-84
2021/06/17 01:09:07;;;;;;;6.95;4.88;;;22.20;98.40;;;;;;4988085;28;20031;-85
2021/06/17 01:12:00;;;;;;;7.25;5.10;;;22.20;98.50;;;;;;4982249;28;20038;-85
2021/06/17 01:14:41;;;;;;;9.80;5.22;;;22.20;98.50;;;;;;4991608;28;20026;-86
2021/06/17 01:17:12;;;;;;;10.35;5.05;;;22.20;98.70;;;;;;4989303;28;20066;-86
2021/06/17 01:20:14;;;;;;;10.80;5.53;;;22.20;98.70;;;;;;4984744;28;20023;-85
2021/06/17 01:22:58;;;;;;;16.05;4.82;;;22.20;98.80;;;;;;4968735;28;20117;-86
2021/06/17 01:25:52;;;;;;;16.55;5.32;;;22.10;98.90;;;;;;4990781;28;20109;-85
2021/06/17 01:28:20;;;;;;;7.70;5.10;;;22.10;98.90;;;;;;4984405;28;20058;-84
2021/06/17 01:31:12;;;;;;;6.82;4.97;;;22.10;99.10;;;;;;4983982;28;20109;-85
2021/06/17 01:33:44;;;;;;;8.32;4.63;;;22.10;99.20;;;;;;4981526;28;20031;-85
2021/06/17 01:36:17;;;;;;;7.50;4.82;;;22.00;99.30;;;;;;4981130;28;20483;-82
2021/06/17 01:38:50;;;;;;;6.50;5.22;;;22.10;99.40;;;;;;4987806;28;20030;-83
2021/06/17 01:41:21;;;;;;;11.93;5.50;;;22.00;99.40;;;;;;4984536;28;20076;-84
2021/06/17 01:43:48;;;;;;;9.90;5.05;;;22.00;99.30;;;;;;4984321;28;20027;-84
2021/06/17 01:46:14;;;;;;;14.50;4.82;;;22.00;99.40;;;;;;4990655;28;20031;-84
2021/06/17 01:48:42;;;;;;;9.95;4.63;;;22.00;99.50;;;;;;4992571;28;20034;-86
2021/06/17 01:51:08;;;;;;;15.15;5.72;;;22.00;99.50;;;;;;4993174;28;20026;-85
2021/06/17 01:53:37;;;;;;;9.40;4.80;;;22.00;99.60;;;;;;4982105;28;20479;-81
2021/06/17 01:56:07;;;;;;;9.15;3.85;;;22.00;99.60;;;;;;4995893;28;20034;-82
2021/06/17 01:58:33;;;;;;;8.52;4.85;;;22.00;99.50;;;;;;4995447;28;20018;-85
2021/06/17 02:01:03;;;;;;;13.15;4.90;;;22.00;99.40;;;;;;4994352;28;20030;-85
2021/06/17 02:03:31;;;;;;;11.13;4.43;;;22.00;99.20;;;;;;4989715;28;20034;-86
2021/06/17 02:05:57;;;;;;;15.30;4.78;;;22.00;98.70;;;;;;4994333;28;20054;-83
2021/06/17 02:08:24;;;;;;;6.47;4.55;;;22.00;99.00;;;;;;4989046;28;20431;-77
2021/06/17 02:10:51;;;;;;;6.75;4.63;;;21.90;98.90;;;;;;4998659;28;20434;-83
2021/06/17 02:13:18;;;;;;;8.60;4.78;;;22.00;99.00;;;;;;4995696;28;20554;-83
2021/06/17 02:15:47;;;;;;;14.70;5.28;;;21.90;99.10;;;;;;4991156;28;20049;-84
2021/06/17 02:18:24;;;;;;;9.40;4.85;;;21.90;99.10;;;;;;4986173;28;20050;-83
2021/06/17 02:20:50;;;;;;;8.10;5.13;;;21.90;98.90;;;;;;4995182;28;20019;-83
2021/06/17 02:23:16;;;;;;;9.23;5.40;;;21.90;98.90;;;;;;4978491;28;20034;-82
2021/06/17 02:25:44;;;;;;;7.75;4.88;;;21.90;98.90;;;;;;4992247;28;20030;-83
2021/06/17 02:28:18;;;;;;;6.32;4.55;;;21.80;98.80;;;;;;4994748;28;20422;-83
2021/06/17 02:30:46;;;;;;;10.85;4.35;;;21.80;98.90;;;;;;4993958;28;20031;-81
2021/06/17 02:33:16;;;;;;;11.63;4.35;;;21.80;98.80;;;;;;4994359;28;20463;-82
2021/06/17 02:35:46;;;;;;;8.88;4.75;;;21.80;99.00;;;;;;4986614;28;20027;-79
2021/06/17 02:38:15;;;;;;;10.57;4.22;;;21.80;99.00;;;;;;4983002;28;20026;-81
2021/06/17 02:40:45;;;;;;;10.90;4.55;;;21.70;99.20;;;;;;4983805;28;20046;-82
2021/06/17 02:43:20;;;;;;;10.35;5.07;;;21.70;99.20;;;;;;4990038;28;22205;-81
2021/06/17 02:45:49;;;;;;;17.05;5.10;;;21.70;99.10;;;;;;4988572;28;20015;-85
2021/06/17 02:48:16;;;;;;;6.72;4.53;;;21.70;99.10;;;;;;4987240;28;20034;-80
2021/06/17 02:50:42;;;;;;;5.30;4.40;;;21.60;99.30;;;;;;4990520;28;20053;-83
2021/06/17 02:53:08;;;;;;;7.93;4.72;;;21.70;99.40;;;;;;4989605;28;20510;-76
2021/06/17 02:55:34;;;;;;;7.20;4.43;;;21.60;99.60;;;;;;4995040;28;20023;-77
2021/06/17 02:58:27;;;;;;;6.78;4.65;;;21.60;99.60;;;;;;4981059;28;20062;-77
2021/06/17 03:00:58;;;;;;;6.80;5.15;;;21.60;99.40;;;;;;4993313;28;20029;-80
2021/06/17 03:03:44;;;;;;;6.53;4.47;;;21.60;99.50;;;;;;4981280;28;20027;-77
2021/06/17 03:06:24;;;;;;;8.75;4.85;;;21.60;99.60;;;;;;4983254;28;20037;-76
2021/06/17 03:08:58;;;;;;;7.25;4.72;;;21.60;99.40;;;;;;4981891;28;20109;-81
2021/06/17 03:11:32;;;;;;;11.55;4.85;;;21.60;99.50;;;;;;4984864;28;20053;-77
2021/06/17 03:14:04;;;;;;;10.82;5.18;;;21.70;99.30;;;;;;4984830;28;20027;-86
2021/06/17 03:16:32;;;;;;;9.73;5.05;;;21.70;99.50;;;;;;4981422;28;20480;-83
2021/06/17 03:19:00;;;;;;;6.82;4.45;;;21.70;99.70;;;;;;4987569;28;20030;-84
2021/06/17 03:21:32;;;;;;;10.52;5.00;;;21.70;99.70;;;;;;4986690;28;20050;-82
2021/06/17 03:24:01;;;;;;;13.68;4.88;;;21.70;99.90;;;;;;4988396;28;20030;-84
2021/06/17 03:26:27;;;;;;;10.23;4.82;;;21.70;99.80;;;;;;4997116;28;20029;-83
2021/06/17 03:28:55;;;;;;;6.22;4.32;;;21.80;99.90;;;;;;4995027;28;20022;-84
2021/06/17 03:31:21;;;;;;;13.30;5.13;;;21.80;99.90;;;;;;4991622;28;20030;-83
2021/06/17 03:33:50;;;;;;;6.80;4.63;;;21.90;99.60;;;;;;4988839;28;20029;-84
2021/06/17 03:36:17;;;;;;;12.50;5.28;;;21.90;99.50;;;;;;4987369;28;20034;-84
2021/06/17 03:38:45;;;;;;;7.80;4.45;;;21.90;99.50;;;;;;4992764;28;20121;-81
2021/06/17 03:41:13;;;;;;;9.27;4.78;;;22.00;99.70;;;;;;4978291;28;20487;-83
2021/06/17 03:43:41;;;;;;;8.98;4.70;;;22.00;99.70;;;;;;4983394;28;20423;-82
2021/06/17 03:46:11;;;;;;;7.47;4.25;;;22.00;99.80;;;;;;4987915;28;20483;-82
2021/06/17 03:48:45;;;;;;;9.50;4.53;;;22.10;99.60;;;;;;4993113;28;20767;-77
2021/06/17 03:51:14;;;;;;;13.07;5.00;;;22.00;99.70;;;;;;4990236;28;20816;-82
2021/06/17 03:53:43;;;;;;;9.20;4.65;;;22.00;99.70;;;;;;4993627;28;20034;-84
2021/06/17 03:56:11;;;;;;;5.38;4.13;;;22.10;99.60;;;;;;4987055;28;20038;-83
2021/06/17 03:58:37;;;;;;;14.80;4.97;;;22.10;99.60;;;;;;4993384;28;20026;-83
2021/06/17 04:01:06;;;;;;;15.93;5.38;;;22.20;99.70;;;;;;4988997;28;20101;-83
2021/06/17 04:03:32;;;;;;;9.35;4.90;;;22.30;99.80;;;;;;4988122;28;20038;-83
2021/06/17 04:06:00;;;;;;;9.57;5.00;;;22.40;99.50;;;;;;4992734;28;20097;-82
2021/06/17 04:08:48;;;;;;;10.93;4.68;;;22.50;99.90;;;;;;4992846;28;20019;-83
2021/06/17 04:11:15;;;;;;;11.15;4.72;;;22.60;99.90;;;;;;4990235;28;20025;-84
2021/06/17 04:13:43;;;;;;;10.20;4.72;;;22.80;99.60;;;;;;4986101;28;20031;-82
2021/06/17 04:16:14;;;;;;;11.70;4.78;;;23.00;99.20;;;;;;4992572;28;20101;-83
2021/06/17 04:18:43;;;;;;;9.45;4.57;;;23.20;99.00;;;;;;4992588;28;20609;-77
2021/06/17 04:21:10;;;;;;;10.20;4.78;;;23.40;98.50;;;;;;4987092;28;20483;-81
2021/06/17 04:23:37;;;;;;;10.02;4.60;;;23.60;98.40;;;;;;4992872;28;20395;-82
2021/06/17 04:26:05;;;;;;;9.48;4.38;;;23.90;98.20;;;;;;4992870;28;20018;-81
2021/06/17 04:28:33;;;;;;;9.57;4.55;;;24.20;97.80;;;;;;4970968;28;20022;-83
2021/06/17 04:31:01;;;;;;;9.15;4.22;;;24.60;97.70;;;;;;4980913;28;20027;-81
2021/06/17 04:33:30;;;;;;;9.45;4.30;;;25.10;96.90;;;;;;4990099;28;20038;-81
2021/06/17 04:35:59;;;;;;;8.55;4.43;;;25.70;96.50;;;;;;4986959;28;20108;-83
2021/06/17 04:38:26;;;;;;;11.45;4.22;;;27.10;95.10;;;;;;4992334;28;20038;-83
2021/06/17 04:40:52;;;;;;;10.85;4.03;;;29.00;93.30;;;;;;4988454;28;20030;-83
2021/06/17 04:43:22;;;;;;;7.38;4.13;;;30.70;92.10;;;;;;4991409;28;20057;-81
2021/06/17 04:45:51;;;;;;;5.95;3.80;;;32.00;91.00;;;;;;4992395;28;20651;-84
2021/06/17 04:48:18;;;;;;;7.95;4.40;;;32.90;89.70;;;;;;4989336;28;20073;-82
2021/06/17 04:50:45;;;;;;;8.27;3.97;;;33.70;88.00;;;;;;4988607;28;20065;-81
2021/06/17 04:53:16;;;;;;;9.07;3.92;;;34.30;86.70;;;;;;4981960;28;20552;-81
2021/06/17 04:55:53;;;;;;;10.18;3.60;;;34.80;85.50;;;;;;4981467;28;20089;-83
2021/06/17 04:58:21;;;;;;;6.57;3.90;;;35.60;83.30;;;;;;4983490;28;20467;-81
2021/06/17 05:00:48;;;;;;;7.70;3.97;;;36.10;82.20;;;;;;4985507;28;20018;-82
2021/06/17 05:03:16;;;;;;;9.52;4.22;;;36.60;81.60;;;;;;4980735;28;20041;-82
2021/06/17 05:05:42;;;;;;;10.27;3.55;;;37.20;81.00;;;;;;4982496;28;20030;-81
2021/06/17 05:10:54;;;;;;;6.93;3.88;;;38.10;80.30;;;;;;4987966;28;20387;-83
2021/06/17 05:13:25;;;;;;;12.98;3.58;;;38.50;79.40;;;;;;4984185;28;20034;-82
2021/06/17 05:15:53;;;;;;;13.80;4.10;;;38.80;79.40;;;;;;4985575;28;20530;-81
2021/06/17 05:18:19;;;;;;;13.00;3.92;;;39.20;78.80;;;;;;4987205;28;20435;-84
2021/06/17 05:20:45;;;;;;;12.82;3.50;;;39.50;77.80;;;;;;4987011;28;20053;-85
2021/06/17 05:23:14;;;;;;;12.00;3.88;;;40.00;77.00;;;;;;4991217;28;20030;-85
2021/06/17 05:25:41;;;;;;;11.48;4.00;;;40.40;75.80;;;;;;4991914;28;20037;-84
2021/06/17 05:28:06;;;;;;;10.10;3.92;;;40.90;74.60;;;;;;4989334;28;20380;-85
2021/06/17 05:30:32;;;;;;;15.05;3.60;;;41.00;74.40;;;;;;4979847;28;20137;-84
2021/06/17 05:32:58;;;;;;;10.40;4.00;;;41.30;73.60;;;;;;4986782;28;20037;-82
2021/06/17 05:35:24;;;;;;;10.00;4.10;;;41.70;71.90;;;;;;4993717;28;20805;-85
2021/06/17 05:37:50;;;;;;;11.77;4.00;;;41.90;71.40;;;;;;4992587;28;20038;-83
2021/06/17 05:40:16;;;;;;;12.02;4.00;;;42.10;70.80;;;;;;4992884;28;20483;-83
2021/06/17 05:42:42;;;;;;;14.88;3.45;;;42.50;70.20;;;;;;4971618;28;20407;-79
2021/06/17 05:45:08;;;;;;;8.13;3.83;;;43.00;68.90;;;;;;4992718;28;20026;-83
2021/06/17 05:47:36;;;;;;;8.10;3.63;;;43.40;67.60;;;;;;4988968;28;20034;-84
2021/06/17 05:50:02;;;;;;;14.90;3.58;;;43.40;67.20;;;;;;4992907;28;20034;-76
2021/06/17 05:52:28;;;;;;;8.25;3.15;;;43.90;65.60;;;;;;4992527;28;20064;-76
2021/06/17 05:54:54;;;;;;;14.95;3.60;;;43.90;64.50;;;;;;4991577;28;20066;-77
2021/06/17 05:57:19;;;;;;;6.65;3.20;;;43.80;63.60;;;;;;4993878;28;20427;-76
2021/06/17 05:59:45;;;;;;;12.95;3.25;;;43.90;63.50;;;;;;4993233;28;20023;-77
2021/06/17 06:02:11;;;;;;;12.10;3.08;;;43.70;62.80;;;;;;4994284;28;20555;-76
2021/06/17 06:04:37;;;;;;;10.43;2.90;;;44.00;62.70;;;;;;4994894;28;20031;-77
2021/06/17 06:07:02;;;;;;;12.48;3.30;;;43.60;62.50;;;;;;4994256;28;20109;-77
2021/06/17 06:09:28;;;;;;;10.00;2.65;;;43.60;62.70;;;;;;4994694;28;20557;-78
2021/06/17 06:11:54;;;;;;;9.77;2.92;;;44.10;62.20;;;;;;4977097;28;20037;-77
2021/06/17 06:14:20;;;;;;;28.17;3.97;;;44.00;62.20;;;;;;4992364;28;20824;-77
2021/06/17 06:16:46;;;;;;;14.65;3.03;;;44.00;61.90;;;;;;4987600;28;20038;-77
2021/06/17 06:19:12;;;;;;;17.55;3.08;;;44.20;61.40;;;;;;4982990;28;20018;-76
2021/06/17 06:21:38;;;;;;;7.80;3.15;;;44.80;61.30;;;;;;4988308;28;20041;-76
2021/06/17 06:24:04;;;;;;;7.85;3.47;;;44.80;60.80;;;;;;4992918;28;20138;-77
2021/06/17 06:26:30;;;;;;;8.10;3.10;;;45.50;60.40;;;;;;4994221;28;20391;-77
2021/06/17 06:28:55;;;;;;;10.07;2.80;;;45.80;59.60;;;;;;4989898;28;20023;-78
2021/06/17 06:31:21;;;;;;;15.63;2.70;;;46.00;58.80;;;;;;4991507;28;20422;-77
2021/06/17 06:33:47;;;;;;;5.25;2.60;;;45.70;58.10;;;;;;4986723;28;20034;-77
2021/06/17 06:36:12;;;;;;;13.45;2.80;;;45.90;57.90;;;;;;4993908;28;20506;-77
2021/06/17 06:38:38;;;;;;;12.32;3.10;;;45.40;57.80;;;;;;4993989;28;20018;-76
2021/06/17 06:41:04;;;;;;;11.60;3.58;;;44.90;58.00;;;;;;4993874;28;20105;-76
2021/06/17 06:43:30;;;;;;;11.95;3.53;;;44.10;58.20;;;;;;4994134;28;20042;-77
2021/06/17 06:45:56;;;;;;;20.67;4.22;;;43.00;59.10;;;;;;4993788;28;20033;-76
2021/06/17 06:48:21;;;;;;;8.43;3.22;;;41.80;59.70;;;;;;4992413;28;20037;-77
2021/06/17 06:50:50;;;;;;;13.85;3.28;;;40.00;61.50;;;;;;4990543;28;20114;-76
2021/06/17 06:53:16;;;;;;;13.25;4.07;;;38.40;63.60;;;;;;4989599;28;20133;-76
2021/06/17 06:55:42;;;;;;;7.75;3.38;;;37.20;64.90;;;;;;4993631;28;20105;-77
2021/06/17 06:58:07;;;;;;;13.80;4.07;;;36.10;66.90;;;;;;4987926;28;20042;-77
2021/06/17 07:00:33;;;;;;;16.48;4.15;;;35.40;68.00;;;;;;4992845;28;20018;-76
2021/06/17 07:02:59;;;;;;;14.00;3.70;;;35.10;69.40;;;;;;4990505;28;20030;-76
2021/06/17 07:05:26;;;;;;;11.90;4.22;;;34.70;70.70;;;;;;4992085;28;20027;-76
2021/06/17 07:07:52;;;;;;;24.63;4.32;;;34.40;70.00;;;;;;4993951;28;20033;-76
2021/06/17 07:10:18;;;;;;;10.65;4.05;;;34.20;71.90;;;;;;4992909;28;20121;-76
2021/06/17 07:12:44;;;;;;;12.50;4.15;;;34.20;72.00;;;;;;4988568;28;20034;-76
2021/06/17 07:15:10;;;;;;;14.40;3.50;;;34.10;72.20;;;;;;4981555;28;20031;-76
2021/06/17 07:17:36;;;;;;;12.38;3.97;;;33.90;72.80;;;;;;4974991;28;20436;-77
2021/06/17 07:20:02;;;;;;;10.23;4.07;;;34.00;72.80;;;;;;4980112;28;20057;-77
2021/06/17 07:22:28;;;;;;;22.20;4.20;;;34.00;73.60;;;;;;4984167;28;20034;-76
2021/06/17 07:24:54;;;;;;;8.50;4.40;;;34.00;75.60;;;;;;4990855;28;20038;-76
2021/06/17 07:27:21;;;;;;;16.50;5.00;;;33.80;74.80;;;;;;4974155;28;20476;-76
2021/06/17 07:29:46;;;;;;;8.65;4.18;;;33.60;74.80;;;;;;4985320;28;20018;-76
2021/06/17 07:32:12;;;;;;;15.32;4.63;;;33.60;75.00;;;;;;4988640;28;20026;-76
2021/06/17 07:34:39;;;;;;;13.25;3.72;;;33.50;75.40;;;;;;4989565;28;20018;-77
2021/06/17 07:37:05;;;;;;;23.38;4.88;;;33.60;75.40;;;;;;4986763;28;20069;-77
2021/06/17 07:39:31;;;;;;;13.07;4.55;;;33.70;78.50;;;;;;4986664;28;20050;-78
2021/06/17 07:41:57;;;;;;;7.65;4.60;;;33.50;79.30;;;;;;4989541;28;20030;-77
2021/06/17 07:44:23;;;;;;;10.98;4.82;;;33.40;79.50;;;;;;4987890;28;20018;-77
2021/06/17 07:46:49;;;;;;;16.65;5.55;;;33.00;80.60;;;;;;4991651;28;20075;-76
2021/06/17 07:49:14;;;;;;;19.73;4.60;;;32.90;81.60;;;;;;4991878;28;20096;-76
2021/06/17 07:51:40;;;;;;;19.10;4.55;;;32.60;83.10;;;;;;4989198;28;20034;-77
2021/06/17 07:54:06;;;;;;;11.38;3.88;;;32.30;83.90;;;;;;4991174;28;20506;-77
2021/06/17 07:56:32;;;;;;;8.18;3.67;;;32.40;84.40;;;;;;4988711;28;20053;-76
2021/06/17 07:58:58;;;;;;;7.78;4.10;;;32.20;83.30;;;;;;4987430;28;20039;-77
2021/06/17 08:01:25;;;;;;;19.48;6.05;;;32.20;83.20;;;;;;4989488;28;20049;-77
2021/06/17 08:03:52;;;;;;;14.35;5.50;;;32.30;83.10;;;;;;4990857;28;20022;-77
2021/06/17 08:06:18;;;;;;;9.05;4.60;;;32.40;83.60;;;;;;4990677;28;20026;-78
2021/06/17 08:08:44;;;;;;;22.63;4.88;;;32.40;83.60;;;;;;4992187;28;20049;-78
2021/06/17 08:11:10;;;;;;;6.57;4.20;;;32.50;83.30;;;;;;4995620;28;20021;-78
2021/06/17 08:13:37;;;;;;;9.68;5.07;;;32.50;83.90;;;;;;4990185;28;20403;-77
2021/06/17 08:16:03;;;;;;;8.25;4.88;;;32.40;85.80;;;;;;4986774;28;20041;-77
2021/06/17 08:18:29;;;;;;;10.88;4.07;;;32.30;85.90;;;;;;4969605;28;20082;-76
2021/06/17 08:20:55;;;;;;;11.05;3.95;;;32.30;86.00;;;;;;4985317;28;20026;-77
2021/06/17 08:23:21;;;;;;;15.38;4.68;;;32.30;86.10;;;;;;4991082;28;20035;-77
2021/06/17 08:25:50;;;;;;;12.77;4.80;;;32.30;85.70;;;;;;4992612;28;20022;-76
2021/06/17 08:28:16;;;;;;;10.90;4.32;;;32.40;86.30;;;;;;4991336;28;20061;-77
2021/06/17 08:30:42;;;;;;;10.10;4.35;;;32.30;87.80;;;;;;4992520;28;20045;-77
2021/06/17 08:33:08;;;;;;;8.13;4.40;;;32.20;88.40;;;;;;4990346;28;20097;-77
2021/06/17 08:35:34;;;;;;;10.50;4.20;;;32.30;87.50;;;;;;4991896;28;20456;-77
2021/06/17 08:38:00;;;;;;;11.93;4.15;;;32.30;86.30;;;;;;4991660;28;20038;-77
2021/06/17 08:40:30;;;;;;;9.88;4.78;;;32.30;87.30;;;;;;4992312;28;20019;-76
2021/06/17 08:42:56;;;;;;;8.75;4.20;;;32.30;88.10;;;;;;4991279;28;20038;-75
2021/06/17 08:45:22;;;;;;;10.13;4.40;;;32.10;87.80;;;;;;4992183;28;20073;-76
2021/06/17 08:47:48;;;;;;;7.82;3.95;;;32.10;86.80;;;;;;4992042;28;20027;-75
2021/06/17 08:50:15;;;;;;;7.53;3.67;;;32.10;85.70;;;;;;4992528;28;20200;-77
2021/06/17 08:52:43;;;;;;;11.00;3.80;;;32.30;85.40;;;;;;4992134;28;20022;-75
2021/06/17 08:55:29;;;;;;;8.38;3.78;;;32.40;84.90;;;;;;4991386;28;20117;-76
2021/06/17 08:57:57;;;;;;;10.40;4.13;;;32.50;84.00;;;;;;4991761;28;20125;-77
2021/06/17 09:00:23;;;;;;;7.63;4.40;;;32.50;82.90;;;;;;4991861;28;20375;-78
2021/06/17 09:03:02;;;;;;;10.00;3.85;;;32.60;81.80;;;;;;4991707;28;20126;-77
2021/06/17 09:05:29;;;;;;;7.57;4.60;;;32.80;81.70;;;;;;4990808;28;20027;-77
2021/06/17 09:07:56;;;;;;;7.43;4.93;;;32.70;81.80;;;;;;4991068;28;20072;-77
2021/06/17 09:10:22;;;;;;;11.45;4.15;;;32.20;77.90;;;;;;4986715;28;20027;-77
2021/06/17 09:12:50;;;;;;;7.90;4.10;;;32.20;79.30;;;;;;4992026;28;20491;-77
2021/06/17 09:15:32;;;;;;;6.57;3.83;;;32.30;78.30;;;;;;4991813;28;20038;-77
2021/06/17 09:18:15;;;;;;;9.65;4.60;;;32.50;77.50;;;;;;4991617;28;20554;-77
2021/06/17 09:20:47;;;;;;;8.50;3.80;;;32.30;78.90;;;;;;4989611;28;20037;-77
2021/06/17 09:23:31;;;;;;;7.35;3.63;;;32.30;78.30;;;;;;4991423;28;20025;-77
2021/06/17 09:26:00;;;;;;;7.10;3.40;;;32.20;75.60;;;;;;4988851;28;20030;-77
2021/06/17 09:28:43;;;;;;;6.20;3.70;;;32.20;74.90;;;;;;4992042;28;20077;-77
2021/06/17 09:31:17;;;;;;;16.73;3.22;;;32.20;75.60;;;;;;4992216;28;20097;-76
2021/06/17 09:33:44;;;;;;;8.40;4.13;;;32.20;75.10;;;;;;4992136;28;20022;-77
2021/06/17 09:36:10;;;;;;;6.72;4.15;;;32.10;74.80;;;;;;4990779;28;20022;-77
2021/06/17 09:38:50;;;;;;;6.35;3.70;;;32.10;75.30;;;;;;4992800;28;20392;-77
2021/06/17 09:41:31;;;;;;;6.70;3.70;;;32.10;75.80;;;;;;4974319;28;20345;-77
2021/06/17 09:43:57;;;;;;;7.77;3.67;;;32.00;74.60;;;;;;4989335;28;20044;-77
2021/06/17 09:46:23;;;;;;;9.35;3.90;;;32.00;74.40;;;;;;4991495;28;20053;-77
2021/06/17 09:48:49;;;;;;;9.88;4.10;;;31.90;74.40;;;;;;4991537;28;20038;-75
2021/06/17 09:51:21;;;;;;;8.68;3.47;;;31.80;74.90;;;;;;4992129;28;20046;-77
2021/06/17 09:53:47;;;;;;;8.93;4.05;;;31.70;73.90;;;;;;4989594;28;20490;-77
2021/06/17 09:56:17;;;;;;;7.32;3.47;;;31.60;75.10;;;;;;4992150;28;20213;-77
2021/06/17 09:58:44;;;;;;;11.50;3.75;;;31.60;74.60;;;;;;4991838;28;20035;-76
2021/06/17 10:01:17;;;;;;;9.15;3.90;;;31.70;75.20;;;;;;4992319;28;20029;-76
2021/06/17 10:04:09;;;;;;;10.13;3.15;;;31.70;74.90;;;;;;4991552;28;20026;-76
2021/06/17 10:06:36;;;;;;;8.20;4.63;;;31.80;74.30;;;;;;4992742;28;20030;-76
2021/06/17 10:09:17;;;;;;;11.07;4.15;;;31.70;74.30;;;;;;4995465;28;20017;-76
2021/06/17 10:11:44;;;;;;;9.77;3.97;;;31.70;74.70;;;;;;4994823;28;20026;-76
2021/06/17 10:14:11;;;;;;;8.07;3.30;;;31.70;73.70;;;;;;4991770;28;20022;-76
2021/06/17 10:16:42;;;;;;;8.95;3.53;;;31.90;73.90;;;;;;4993081;28;20035;-76
2021/06/17 10:19:13;;;;;;;8.95;4.10;;;31.90;74.90;;;;;;4991776;28;20030;-75
2021/06/17 10:21:39;;;;;;;8.90;3.67;;;31.70;73.60;;;;;;4994662;28;20054;-76
2021/06/17 10:24:20;;;;;;;5.47;3.60;;;31.60;73.70;;;;;;4994376;28;20031;-76
2021/06/17 10:26:52;;;;;;;6.85;3.20;;;31.60;74.40;;;;;;4981691;28;20033;-76
2021/06/17 10:29:27;;;;;;;8.10;3.90;;;31.60;73.80;;;;;;4994392;28;20026;-75
2021/06/17 10:31:57;;;;;;;7.95;3.63;;;31.60;74.10;;;;;;4994589;28;20029;-76
2021/06/17 10:34:23;;;;;;;7.15;3.15;;;31.60;73.70;;;;;;4993655;28;20583;-76
2021/06/17 10:37:10;;;;;;;12.57;3.67;;;31.70;72.70;;;;;;4993930;28;20026;-75
2021/06/17 10:39:47;;;;;;;4.15;3.00;;;31.80;73.20;;;;;;4994351;28;20026;-76
2021/06/17 10:42:24;;;;;;;11.18;3.40;;;31.80;73.00;;;;;;4993915;28;20022;-75
2021/06/17 10:45:02;;;;;;;9.90;3.55;;;31.70;73.40;;;;;;4993508;28;20026;-76
2021/06/17 10:50:28;;;;;;;7.45;4.18;;;31.70;72.80;;;;;;4993607;28;20447;-76
2021/06/17 10:53:15;;;;;;;4.78;3.47;;;31.60;73.20;;;;;;4987147;28;20018;-75
2021/06/17 10:56:01;;;;;;;9.05;3.65;;;31.70;73.10;;;;;;4989416;28;20030;-75
2021/06/17 10:58:43;;;;;;;12.07;4.00;;;31.60;73.40;;;;;;4993384;28;20038;-75
2021/06/17 11:01:27;;;;;;;6.10;3.28;;;31.60;74.00;;;;;;4993759;28;20424;-76
2021/06/17 11:04:06;;;;;;;7.15;3.40;;;31.50;74.00;;;;;;4993279;28;20025;-76
2021/06/17 11:06:54;;;;;;;4.93;3.10;;;31.60;72.40;;;;;;4993888;28;20027;-76
2021/06/17 11:09:35;;;;;;;12.80;3.25;;;31.60;73.40;;;;;;4990047;28;20030;-76
2021/06/17 11:12:02;;;;;;;12.30;3.42;;;31.40;74.30;;;;;;4991783;28;20081;-76
2021/06/17 11:14:38;;;;;;;12.23;3.38;;;31.40;74.90;;;;;;4993415;28;20534;-76
2021/06/17 11:17:26;;;;;;;6.80;3.30;;;31.40;74.00;;;;;;4993334;28;20066;-76
2021/06/17 11:19:55;;;;;;;13.85;3.58;;;31.30;74.50;;;;;;4993055;28;20023;-75
2021/06/17 11:22:58;;;;;;;8.27;3.47;;;31.30;74.10;;;;;;4993375;28;20045;-76
2021/06/17 11:25:26;;;;;;;6.22;3.40;;;31.20;73.10;;;;;;4977168;28;20431;-77
2021/06/17 11:27:57;;;;;;;10.07;4.15;;;31.20;73.30;;;;;;4993157;28;20089;-76
2021/06/17 11:30:49;;;;;;;7.68;3.35;;;31.10;73.10;;;;;;4993682;28;20113;-77
2021/06/17 11:33:19;;;;;;;9.70;3.53;;;31.10;73.40;;;;;;4986865;28;20024;-76
2021/06/17 11:35:50;;;;;;;8.90;3.78;;;31.00;74.60;;;;;;4993422;28;20537;-76
2021/06/17 11:38:28;;;;;;;8.85;3.90;;;30.90;75.90;;;;;;4992834;28;20535;-77
2021/06/17 11:40:54;;;;;;;9.20;3.63;;;30.90;75.60;;;;;;4993547;28;20030;-76
2021/06/17 11:43:23;;;;;;;8.93;3.70;;;31.00;76.30;;;;;;4992913;28;20058;-76
2021/06/17 11:45:49;;;;;;;8.50;3.22;;;31.20;73.60;;;;;;4993285;28;20029;-76
2021/06/17 11:48:15;;;;;;;5.80;4.00;;;31.30;72.70;;;;;;4993527;28;20023;-77
2021/06/17 11:50:45;;;;;;;12.05;3.67;;;31.40;73.50;;;;;;4992954;28;20042;-76
2021/06/17 11:53:18;;;;;;;10.40;3.70;;;31.30;72.80;;;;;;4992972;28;20037;-77
2021/06/17 11:55:53;;;;;;;5.35;3.38;;;31.30;73.00;;;;;;4992749;28;20495;-77
2021/06/17 11:58:19;;;;;;;7.82;3.15;;;31.30;72.20;;;;;;4992393;28;20062;-77
2021/06/17 12:00:45;;;;;;;7.95;3.40;;;31.40;72.80;;;;;;4992840;28;20014;-77
2021/06/17 12:03:19;;;;;;;9.35;3.50;;;31.40;72.00;;;;;;4992699;28;20022;-77
2021/06/17 12:05:46;;;;;;;7.75;2.90;;;31.30;71.70;;;;;;4989373;28;20014;-77
2021/06/17 12:08:11;;;;;;;8.18;3.05;;;31.40;72.80;;;;;;4992261;28;20019;-77
2021/06/17 12:10:42;;;;;;;14.82;3.42;;;31.40;72.10;;;;;;4991122;28;20085;-77
2021/06/17 12:13:10;;;;;;;21.10;3.00;;;31.40;70.70;;;;;;4992024;28;20025;-77
2021/06/17 12:15:41;;;;;;;5.03;3.10;;;31.30;71.10;;;;;;4992051;28;20065;-78
2021/06/17 12:18:13;;;;;;;11.13;2.83;;;31.10;71.00;;;;;;4992034;28;20149;-77
2021/06/17 12:20:39;;;;;;;;;;;31.20;69.80;;;;;;4992820;28;20034;-76
2021/06/17 12:23:23;;;;;;;10.85;3.00;;;31.30;70.30;;;;;;4992032;28;19912;-77
2021/06/17 12:26:10;;;;;;;3.60;2.22;;;31.40;69.80;;;;;;4992384;28;20032;-77
2021/06/17 12:28:53;;;;;;;11.85;3.00;;;31.40;68.10;;;;;;4991852;28;20475;-77
2021/06/17 12:31:36;;;;;;;6.20;3.22;;;31.40;69.30;;;;;;4991647;28;20037;-77
2021/06/17 12:34:09;;;;;;;7.07;3.15;;;31.40;70.60;;;;;;4991918;28;20026;-77
2021/06/17 12:36:35;;;;;;;6.15;2.63;;;31.40;71.40;;;;;;4981200;28;20038;-77
2021/06/17 12:39:19;;;;;;;5.93;3.10;;;31.40;70.90;;;;;;4992061;28;20113;-77
2021/06/17 12:41:48;;;;;;;9.38;3.10;;;31.40;71.10;;;;;;4990497;28;20029;-76
2021/06/17 12:44:40;;;;;;;8.20;2.80;;;31.40;71.30;;;;;;4991679;28;20022;-76
2021/06/17 12:47:27;;;;;;;6.88;3.22;;;31.30;69.10;;;;;;4982761;28;20014;-76
2021/06/17 12:52:38;;;;;;;3.58;2.75;;;31.20;70.10;;;;;;4992133;28;20550;-77
2021/06/17 12:55:06;;;;;;;7.22;2.90;;;31.30;70.30;;;;;;4991830;28;20034;-77
2021/06/17 12:57:32;;;;;;;8.95;3.17;;;31.30;69.60;;;;;;4991570;28;20125;-77
2021/06/17 13:00:17;;;;;;;8.70;3.08;;;31.30;70.00;;;;;;4974151;28;20109;-77
2021/06/17 13:02:45;;;;;;;5.20;2.97;;;31.30;69.70;;;;;;4991977;28;20034;-77
2021/06/17 13:05:16;;;;;;;4.07;2.65;;;31.30;69.70;;;;;;4991694;28;20026;-77